Time;durP1;ratioP1;P1;durP2;ratioP2;P2;SDS_P1;SDS_P2;PMS_P1;PMS_P2;Temp;Humidity;BMP_temperature;BMP_pressure;BME280_temperature;BME280_humidity;BME280_pressure;Samples;Min_cycle;Max_cycle;Signal;HPM_P1;HPM_P2
2021/10/20 00:01:39;;;;;;;7.05;3.90;;;;;;;13.90;78.25;99611.97;5036550;28;20420;-63
2021/10/20 00:04:26;;;;;;;5.18;3.78;;;;;;;13.89;78.44;99605.03;5052653;28;20424;-63
2021/10/20 00:07:15;;;;;;;6.60;3.85;;;;;;;13.90;78.16;99590.25;5054180;28;20428;-63
2021/10/20 00:09:59;;;;;;;6.78;3.70;;;;;;;13.91;78.04;99591.97;5038720;28;20078;-63
2021/10/20 00:12:48;;;;;;;5.90;3.70;;;;;;;13.89;77.97;99597.22;5038632;28;20412;-63
2021/10/20 00:15:41;;;;;;;8.55;5.05;;;;;;;13.90;78.20;99588.53;5053402;28;20415;-63
2021/10/20 00:18:33;;;;;;;5.93;3.38;;;;;;;13.89;78.09;99597.22;5038369;28;20106;-63
2021/10/20 00:21:27;;;;;;;5.45;4.07;;;;;;;13.88;78.29;99590.25;5037966;28;20470;-63
2021/10/20 00:24:17;;;;;;;7.30;3.90;;;;;;;13.87;78.21;99583.31;5038682;28;20102;-63
2021/10/20 00:27:07;;;;;;;5.25;3.28;;;;;;;13.86;77.95;99577.22;5038554;28;20179;-63
2021/10/20 00:30:02;;;;;;;5.15;3.80;;;;;;;13.88;78.04;99576.34;5038194;28;20103;-63
2021/10/20 00:32:47;;;;;;;7.15;4.60;;;;;;;13.88;77.85;99585.06;5038111;28;20099;-62
2021/10/20 00:35:39;;;;;;;5.95;4.03;;;;;;;13.87;77.57;99585.94;5053033;28;20519;-63
2021/10/20 00:38:28;;;;;;;5.20;3.90;;;;;;;13.88;77.82;99587.66;5053219;28;20063;-62
2021/10/20 00:41:16;;;;;;;6.43;3.78;;;;;;;13.89;77.83;99578.97;5038262;28;20189;-61
2021/10/20 00:44:08;;;;;;;5.75;3.38;;;;;;;13.89;77.90;99584.19;5052864;28;20576;-62
2021/10/20 00:46:57;;;;;;;5.70;3.70;;;;;;;13.87;77.68;99578.09;5037465;28;20163;-62
2021/10/20 00:49:44;;;;;;;5.15;3.42;;;;;;;13.85;77.87;99588.56;5038136;28;20048;-62
2021/10/20 00:52:34;;;;;;;6.60;3.70;;;;;;;13.87;77.75;99575.50;5038263;28;20056;-61
2021/10/20 00:55:21;;;;;;;5.90;3.63;;;;;;;13.85;77.84;99572.03;5053059;28;20044;-62
2021/10/20 00:58:14;;;;;;;4.85;3.60;;;;;;;13.85;77.65;99554.69;5037916;28;20074;-62
2021/10/20 01:01:04;;;;;;;5.40;3.83;;;;;;;13.84;77.59;99539.94;5037722;28;20155;-62
2021/10/20 01:03:50;;;;;;;4.85;3.45;;;;;;;13.85;77.36;99552.09;5038122;28;20129;-63
2021/10/20 01:06:37;;;;;;;7.60;4.32;;;;;;;13.84;77.55;99539.06;5037769;28;20079;-63
2021/10/20 01:09:22;;;;;;;14.55;4.15;;;;;;;13.85;77.35;99538.19;5037662;28;20094;-62
2021/10/20 01:12:14;;;;;;;6.45;4.00;;;;;;;13.83;77.47;99530.38;5037593;28;20140;-63
2021/10/20 01:15:06;;;;;;;5.20;3.75;;;;;;;13.82;77.46;99522.56;5039668;28;20044;-63
2021/10/20 01:17:50;;;;;;;6.32;3.53;;;;;;;13.83;77.54;99530.38;5057132;28;20060;-63
2021/10/20 01:20:35;;;;;;;5.50;3.60;;;;;;;13.82;77.36;99523.44;5042003;28;20103;-63
2021/10/20 01:23:24;;;;;;;6.80;3.92;;;;;;;13.83;77.18;99521.69;5056580;28;20070;-64
2021/10/20 01:26:10;;;;;;;7.10;4.40;;;;;;;13.81;77.15;99529.53;5041020;28;20419;-62
2021/10/20 01:29:01;;;;;;;6.35;3.53;;;;;;;13.82;77.12;99525.16;5056372;28;20059;-64
2021/10/20 01:32:05;;;;;;;7.65;4.75;;;;;;;13.82;77.11;99519.97;5041459;28;20457;-64
2021/10/20 01:34:52;;;;;;;6.07;4.25;;;;;;;13.82;77.22;99522.56;5041442;28;20087;-63
2021/10/20 01:37:40;;;;;;;7.68;4.50;;;;;;;13.83;77.20;99526.91;5041104;28;20048;-62
2021/10/20 01:40:32;;;;;;;7.70;4.25;;;;;;;13.83;77.09;99519.09;5055965;28;20040;-61
2021/10/20 01:43:22;;;;;;;7.13;3.88;;;;;;;13.82;76.96;99518.22;5040336;28;20044;-61
2021/10/20 01:46:16;;;;;;;8.13;4.07;;;;;;;13.82;77.09;99513.03;5040906;28;20056;-62
2021/10/20 01:49:06;;;;;;;8.65;3.72;;;;;;;13.81;77.03;99521.72;5041083;28;20151;-64
2021/10/20 01:51:53;;;;;;;5.70;4.38;;;;;;;13.82;77.06;99515.63;5040979;28;20060;-63
2021/10/20 01:54:40;;;;;;;11.45;3.72;;;;;;;13.82;76.82;99501.72;5040871;28;20095;-63
2021/10/20 01:57:32;;;;;;;8.35;4.03;;;;;;;13.82;77.16;99501.72;5056115;28;20047;-63
2021/10/20 02:00:19;;;;;;;5.47;4.63;;;;;;;13.81;76.82;99487.84;5055570;28;20048;-63
2021/10/20 02:03:09;;;;;;;9.63;4.50;;;;;;;13.82;77.08;99493.91;5055654;28;20060;-63
2021/10/20 02:05:54;;;;;;;10.73;4.05;;;;;;;13.83;76.92;99498.25;5040492;28;20066;-63
2021/10/20 02:08:46;;;;;;;7.25;4.43;;;;;;;13.83;76.84;99480.91;5040759;28;20048;-63
2021/10/20 02:11:44;;;;;;;6.55;4.60;;;;;;;13.83;76.75;99477.41;5040824;28;20052;-64
2021/10/20 02:14:39;;;;;;;7.93;5.25;;;;;;;13.83;76.83;99480.91;5040167;28;20582;-64
2021/10/20 02:17:32;;;;;;;9.15;4.95;;;;;;;13.81;76.79;99480.03;5055645;28;20095;-63
2021/10/20 02:20:21;;;;;;;6.68;4.18;;;;;;;13.82;76.67;99480.88;5040448;28;20159;-62
2021/10/20 02:23:08;;;;;;;5.97;4.00;;;;;;;13.80;76.98;99483.50;5040399;28;20412;-62
2021/10/20 02:25:52;;;;;;;8.80;3.92;;;;;;;13.80;76.89;99474.81;5039744;28;20133;-62
2021/10/20 02:28:39;;;;;;;6.80;4.45;;;;;;;13.81;76.62;99467.00;5055109;28;20109;-62
2021/10/20 02:31:29;;;;;;;5.97;3.97;;;;;;;13.81;76.91;99459.19;5055737;28;20075;-62
2021/10/20 02:34:20;;;;;;;6.60;4.28;;;;;;;13.80;76.54;99449.66;5040189;28;20132;-62
2021/10/20 02:37:04;;;;;;;9.35;5.05;;;;;;;13.81;76.66;99456.59;5055381;28;20052;-62
2021/10/20 02:39:48;;;;;;;9.93;4.30;;;;;;;13.82;76.57;99454.84;5040240;28;20079;-62
2021/10/20 02:42:32;;;;;;;;;;;;;;;13.80;76.46;99444.44;5040080;28;20090;-62
2021/10/20 02:45:17;;;;;;;8.77;4.72;;;;;;;13.79;76.65;99447.94;5054829;28;19963;-62
2021/10/20 02:48:06;;;;;;;8.95;4.90;;;;;;;13.82;76.78;99441.81;5055150;28;20140;-62
2021/10/20 02:50:53;;;;;;;7.03;4.72;;;;;;;13.82;76.82;99441.81;5039907;28;20514;-63
2021/10/20 02:53:41;;;;;;;7.75;4.43;;;;;;;13.80;76.59;99443.56;5039746;28;20043;-62
2021/10/20 02:56:25;;;;;;;7.68;4.70;;;;;;;13.81;76.67;99434.88;5054974;28;20095;-62
2021/10/20 02:59:09;;;;;;;;;;;;;;;13.80;76.52;99434.03;5054838;28;20048;-62
2021/10/20 03:01:59;;;;;;;7.43;3.80;;;;;;;13.78;76.65;99425.34;5039360;28;20259;-63
2021/10/20 03:04:51;;;;;;;9.27;4.97;;;;;;;13.79;76.65;99421.88;5039518;28;20098;-63
2021/10/20 03:07:54;;;;;;;6.60;4.80;;;;;;;13.80;76.58;99417.53;5039928;28;20114;-63
2021/10/20 03:10:41;;;;;;;8.15;4.50;;;;;;;13.78;76.41;99409.72;5054776;28;20051;-63
2021/10/20 03:13:28;;;;;;;8.20;4.63;;;;;;;13.79;76.42;99402.78;5039320;28;20228;-63
2021/10/20 03:16:12;;;;;;;5.43;4.43;;;;;;;13.79;76.36;99390.63;5039627;28;20099;-63
2021/10/20 03:18:56;;;;;;;8.32;5.10;;;;;;;13.78;76.54;99388.91;5054206;28;20071;-63
2021/10/20 03:21:43;;;;;;;10.60;4.78;;;;;;;13.78;76.52;99390.66;5054161;28;20048;-63
2021/10/20 03:24:27;;;;;;;7.68;4.53;;;;;;;13.77;76.56;99384.56;5054129;28;20072;-63
2021/10/20 03:27:19;;;;;;;4.78;4.10;;;;;;;13.77;76.46;99381.97;5054440;28;20110;-63
2021/10/20 03:30:14;;;;;;;5.88;4.63;;;;;;;13.77;76.33;99383.72;5054538;28;20055;-63
2021/10/20 03:32:58;;;;;;;5.95;4.80;;;;;;;13.77;76.47;99383.72;5039331;28;20400;-63
2021/10/20 03:35:50;;;;;;;6.38;4.68;;;;;;;13.77;76.28;99379.34;5039196;28;20044;-63
2021/10/20 03:38:43;;;;;;;5.35;4.75;;;;;;;13.78;76.35;99381.09;5038055;28;20095;-63
2021/10/20 03:41:27;;;;;;;11.82;4.13;;;;;;;13.79;76.45;99389.75;5038852;28;20044;-63
2021/10/20 03:44:19;;;;;;;6.40;4.45;;;;;;;13.77;76.43;99374.16;5054136;28;20091;-63
2021/10/20 03:47:06;;;;;;;7.63;4.68;;;;;;;13.79;76.24;99364.59;5038917;28;20044;-63
2021/10/20 03:49:53;;;;;;;8.73;4.88;;;;;;;13.80;76.41;99368.03;5038690;28;20103;-63
2021/10/20 03:52:45;;;;;;;6.88;5.47;;;;;;;13.80;76.20;99368.91;5039140;28;20055;-64
2021/10/20 03:55:35;;;;;;;7.35;5.07;;;;;;;13.80;76.43;99371.53;5038714;28;20048;-63
2021/10/20 03:58:22;;;;;;;5.57;4.28;;;;;;;13.81;76.42;99374.97;5038904;28;20052;-63
2021/10/20 04:01:09;;;;;;;6.80;5.00;;;;;;;13.80;76.34;99361.09;5038667;28;20572;-63
2021/10/20 04:03:56;;;;;;;9.60;5.10;;;;;;;13.80;76.22;99360.22;5038826;28;20055;-63
2021/10/20 04:06:43;;;;;;;8.15;4.65;;;;;;;13.80;76.15;99362.84;5053656;28;20044;-63
2021/10/20 04:09:27;;;;;;;7.68;4.88;;;;;;;13.80;76.50;99353.28;5038162;28;20052;-63
2021/10/20 04:12:19;;;;;;;10.40;4.93;;;;;;;13.78;76.42;99355.03;5053236;28;20079;-63
2021/10/20 04:15:10;;;;;;;9.20;5.40;;;;;;;13.79;76.13;99351.56;5037598;28;20114;-63
2021/10/20 04:17:57;;;;;;;10.10;5.03;;;;;;;13.81;76.43;99341.13;5038124;28;20462;-63
2021/10/20 04:20:43;;;;;;;7.32;4.65;;;;;;;13.80;76.24;99329.84;5038539;28;20055;-63
2021/10/20 04:23:33;;;;;;;6.82;4.85;;;;;;;13.80;76.12;99313.34;5037924;28;20044;-63
2021/10/20 04:26:25;;;;;;;12.93;5.00;;;;;;;13.81;76.48;99320.28;5053362;28;20052;-63
2021/10/20 04:29:09;;;;;;;6.13;4.70;;;;;;;13.80;76.35;99319.44;5053090;28;20090;-63
2021/10/20 04:31:53;;;;;;;14.45;5.80;;;;;;;13.78;76.16;99310.78;5053019;28;20098;-63
2021/10/20 04:34:40;;;;;;;7.38;5.45;;;;;;;13.78;76.00;99294.31;5053004;28;20044;-63
2021/10/20 04:37:28;;;;;;;7.32;5.00;;;;;;;13.78;76.07;99299.50;5038316;28;20083;-63
2021/10/20 04:40:14;;;;;;;9.48;5.20;;;;;;;13.78;76.37;99309.94;5038010;28;20052;-63
2021/10/20 04:43:05;;;;;;;10.18;5.53;;;;;;;13.78;76.09;99289.09;5037831;28;20060;-63
2021/10/20 04:45:56;;;;;;;7.20;5.15;;;;;;;13.78;76.43;99299.50;5053100;28;20048;-63
2021/10/20 04:48:48;;;;;;;8.20;5.18;;;;;;;13.78;76.12;99289.09;5038347;28;20091;-63
2021/10/20 04:51:32;;;;;;;7.80;5.53;;;;;;;13.78;76.14;99289.09;5042103;28;20514;-63
2021/10/20 04:54:22;;;;;;;8.90;5.18;;;;;;;13.79;76.36;99291.66;5057221;28;20570;-63
2021/10/20 04:57:06;;;;;;;6.65;5.15;;;;;;;13.79;76.45;99281.25;5042307;28;20099;-63
2021/10/20 04:59:53;;;;;;;6.28;4.95;;;;;;;13.79;76.17;99275.16;5056474;28;20075;-63
2021/10/20 05:02:37;;;;;;;9.63;6.40;;;;;;;13.79;76.07;99259.53;5041275;28;20179;-63
2021/10/20 05:05:30;;;;;;;6.22;5.28;;;;;;;13.79;76.47;99262.13;5056557;28;20148;-63
2021/10/20 05:08:23;;;;;;;9.40;5.00;;;;;;;13.78;76.49;99243.06;5057316;28;20103;-63
2021/10/20 05:11:13;;;;;;;9.10;5.60;;;;;;;13.78;76.12;99237.00;5041589;28;20067;-63
2021/10/20 05:14:02;;;;;;;8.13;5.65;;;;;;;13.78;76.36;99235.25;5041951;28;20106;-63
2021/10/20 05:16:52;;;;;;;7.85;5.40;;;;;;;13.77;76.38;99228.31;5041389;28;20554;-63
2021/10/20 05:19:36;;;;;;;7.60;5.82;;;;;;;13.77;76.44;99230.91;5041684;28;20060;-63
2021/10/20 05:22:27;;;;;;;8.10;6.15;;;;;;;13.77;76.48;99224.88;5041540;28;20068;-63
2021/10/20 05:25:19;;;;;;;6.95;5.18;;;;;;;13.76;76.25;99223.13;5041716;28;20098;-63
2021/10/20 05:28:07;;;;;;;12.45;5.72;;;;;;;13.76;76.44;99208.34;5056197;28;20040;-63
2021/10/20 05:30:54;;;;;;;10.13;5.32;;;;;;;13.75;76.69;99209.22;5041563;28;20566;-63
2021/10/20 05:33:44;;;;;;;7.05;4.57;;;;;;;13.74;76.10;99204.06;5041847;28;20083;-63
2021/10/20 05:36:31;;;;;;;6.25;5.32;;;;;;;13.74;76.27;99202.31;5056495;28;20048;-63
2021/10/20 05:39:18;;;;;;;9.07;4.75;;;;;;;13.74;76.38;99197.09;5055746;28;20129;-63
2021/10/20 05:42:02;;;;;;;9.32;5.53;;;;;;;13.74;76.33;99211.88;5056175;28;20044;-63
2021/10/20 05:44:47;;;;;;;;;;;;;;;13.73;76.38;99186.72;5056754;28;20072;-63
2021/10/20 05:47:39;;;;;;;9.68;5.03;;;;;;;13.72;76.31;99187.59;5041394;28;20004;-63
2021/10/20 05:50:29;;;;;;;7.05;5.00;;;;;;;13.74;76.54;99210.09;5056213;28;20044;-63
2021/10/20 05:53:13;;;;;;;10.23;5.10;;;;;;;13.75;76.51;99231.81;5041094;28;20120;-63
2021/10/20 05:56:08;;;;;;;9.98;5.53;;;;;;;13.75;76.49;99250.91;5056146;28;20056;-63
2021/10/20 05:59:04;;;;;;;7.57;5.72;;;;;;;13.74;76.49;99241.34;5055391;28;20452;-63
2021/10/20 06:02:02;;;;;;;8.93;5.57;;;;;;;13.75;76.59;99222.25;5054455;28;20100;-63
2021/10/20 06:04:51;;;;;;;15.10;6.53;;;;;;;13.74;76.56;99202.31;5040285;28;20048;-63
2021/10/20 06:07:53;;;;;;;7.60;6.00;;;;;;;13.75;76.51;99191.00;5040821;28;20120;-63
2021/10/20 06:10:43;;;;;;;9.32;6.05;;;;;;;13.76;76.46;99192.72;5040344;28;20052;-63
2021/10/20 06:13:41;;;;;;;10.85;6.22;;;;;;;13.77;76.64;99194.47;5055306;28;20423;-63
2021/10/20 06:16:38;;;;;;;9.32;5.85;;;;;;;13.76;76.55;99205.75;5040463;28;20044;-63
2021/10/20 06:19:36;;;;;;;10.57;5.82;;;;;;;13.78;76.45;99185.78;5055292;28;20051;-63
2021/10/20 06:22:35;;;;;;;10.05;6.25;;;;;;;13.79;76.56;99189.22;5039838;28;20408;-63
2021/10/20 06:25:30;;;;;;;11.30;5.93;;;;;;;13.79;76.29;99190.09;5055114;28;20047;-63
2021/10/20 06:28:28;;;;;;;10.13;6.32;;;;;;;13.80;76.60;99180.53;5055328;28;20056;-63
2021/10/20 06:31:15;;;;;;;9.45;5.60;;;;;;;13.80;76.35;99189.22;5055172;28;20040;-63
2021/10/20 06:33:59;;;;;;;10.32;6.55;;;;;;;13.80;76.70;99190.94;5040449;28;20099;-63
2021/10/20 06:36:45;;;;;;;9.82;6.35;;;;;;;13.82;76.49;99186.59;5055377;28;20047;-63
2021/10/20 06:39:32;;;;;;;8.13;5.35;;;;;;;13.81;76.53;99182.25;5040276;28;20055;-63
2021/10/20 06:42:30;;;;;;;9.57;5.75;;;;;;;13.80;76.43;99181.41;5039946;28;20103;-63
2021/10/20 06:45:17;;;;;;;8.13;6.53;;;;;;;13.82;76.57;99186.59;5039694;28;20047;-63
2021/10/20 06:48:12;;;;;;;12.60;7.30;;;;;;;13.82;76.56;99170.97;5039483;28;20134;-63
2021/10/20 06:51:10;;;;;;;12.52;6.55;;;;;;;13.82;76.55;99165.75;5039721;28;20071;-63
2021/10/20 06:54:05;;;;;;;9.60;7.15;;;;;;;13.83;76.46;99176.19;5054568;28;20053;-63
2021/10/20 06:57:00;;;;;;;8.73;6.57;;;;;;;13.83;76.33;99183.13;5039389;28;20083;-63
2021/10/20 06:59:47;;;;;;;9.57;6.40;;;;;;;13.83;76.32;99185.72;5039788;28;20409;-63
2021/10/20 07:02:31;;;;;;;10.18;6.30;;;;;;;13.83;76.64;99185.72;5054685;28;20059;-63
2021/10/20 07:05:15;;;;;;;10.32;7.05;;;;;;;13.86;76.59;99209.13;5039668;28;20103;-63
2021/10/20 07:08:13;;;;;;;10.75;6.40;;;;;;;13.83;76.30;99198.75;5039611;28;20055;-63
2021/10/20 07:11:08;;;;;;;11.63;6.90;;;;;;;13.84;76.48;99190.94;5039683;28;20052;-63
2021/10/20 07:14:06;;;;;;;10.65;7.40;;;;;;;13.84;76.40;99185.72;5039218;28;20052;-63
2021/10/20 07:17:04;;;;;;;9.73;6.82;;;;;;;13.84;76.31;99170.09;5039613;28;20048;-63
2021/10/20 07:20:00;;;;;;;7.93;6.15;;;;;;;13.85;76.50;99174.41;5039012;28;20558;-63
2021/10/20 07:22:57;;;;;;;9.48;6.88;;;;;;;13.85;76.41;99153.59;5038967;28;20047;-63
2021/10/20 07:25:51;;;;;;;9.98;6.40;;;;;;;13.85;76.45;99156.19;5038784;28;20059;-63
2021/10/20 07:28:35;;;;;;;8.18;5.82;;;;;;;13.84;76.36;99162.28;5038846;28;20519;-63
2021/10/20 07:31:18;;;;;;;9.52;6.53;;;;;;;13.84;76.66;99135.34;5054179;28;20098;-63
2021/10/20 07:34:16;;;;;;;8.38;5.63;;;;;;;13.85;76.29;99137.09;5053921;28;20080;-64
2021/10/20 07:37:06;;;;;;;18.85;7.22;;;;;;;13.85;76.55;99111.03;5039267;28;20043;-63
2021/10/20 07:39:53;;;;;;;8.88;6.93;;;;;;;13.83;76.65;99079.81;5054135;28;20159;-63
2021/10/20 07:42:53;;;;;;;8.95;7.07;;;;;;;13.85;76.41;99065.03;5038741;28;20068;-63
2021/10/20 07:45:46;;;;;;;7.63;5.97;;;;;;;13.85;76.49;99082.38;5054177;28;20072;-63
2021/10/20 07:48:39;;;;;;;9.07;6.93;;;;;;;13.85;76.21;99087.59;5039073;28;20470;-63
2021/10/20 07:51:24;;;;;;;12.95;6.95;;;;;;;13.86;76.22;99112.75;5038054;28;20082;-63
2021/10/20 07:54:08;;;;;;;8.90;5.95;;;;;;;13.87;76.35;99085.84;5053927;28;20043;-63
2021/10/20 07:56:53;;;;;;;9.70;6.75;;;;;;;13.86;76.42;99084.13;5053646;28;20044;-63
2021/10/20 07:59:53;;;;;;;10.07;5.70;;;;;;;13.88;76.48;99079.75;5038795;28;20056;-63
2021/10/20 08:02:52;;;;;;;10.05;6.35;;;;;;;13.89;76.60;99091.91;5053519;28;20126;-63
2021/10/20 08:05:48;;;;;;;7.65;6.47;;;;;;;13.91;76.45;99102.28;5053608;28;20577;-63
2021/10/20 08:08:46;;;;;;;7.80;5.70;;;;;;;13.91;76.40;99113.56;5038655;28;20118;-63
2021/10/20 08:11:42;;;;;;;11.93;6.55;;;;;;;13.92;76.20;99109.22;5038438;28;20052;-63
2021/10/20 08:14:40;;;;;;;8.63;6.53;;;;;;;13.92;76.46;99080.56;5038703;28;20095;-63
2021/10/20 08:17:24;;;;;;;9.60;6.28;;;;;;;13.92;76.35;99076.22;5038300;28;20075;-63
2021/10/20 08:20:09;;;;;;;8.52;6.35;;;;;;;13.93;76.26;99103.13;5038834;28;20392;-63
2021/10/20 08:23:06;;;;;;;8.18;5.65;;;;;;;13.92;76.44;99078.84;5038262;28;20048;-63
2021/10/20 08:25:55;;;;;;;9.13;6.40;;;;;;;13.92;76.42;99047.59;5053135;28;20585;-63
2021/10/20 08:28:53;;;;;;;8.02;6.25;;;;;;;13.92;76.58;99033.69;5038511;28;20132;-63
2021/10/20 08:31:51;;;;;;;10.48;6.50;;;;;;;13.90;76.70;99018.09;5038710;28;20051;-63
2021/10/20 08:34:50;;;;;;;7.65;6.03;;;;;;;13.92;76.54;99026.75;5037797;28;20044;-63
2021/10/20 08:37:54;;;;;;;7.05;6.00;;;;;;;13.92;76.67;99013.72;5038219;28;20052;-63
2021/10/20 08:40:51;;;;;;;9.48;6.88;;;;;;;13.90;76.62;99023.31;5038210;28;20052;-63
2021/10/20 08:43:38;;;;;;;11.55;7.32;;;;;;;13.92;76.61;99031.06;5053193;28;20075;-63
2021/10/20 08:46:26;;;;;;;8.30;6.47;;;;;;;13.92;76.72;99024.13;5037915;28;20052;-63
2021/10/20 08:49:23;;;;;;;9.63;6.45;;;;;;;13.92;76.84;99016.31;5038008;28;20474;-63
2021/10/20 08:52:15;;;;;;;6.88;5.90;;;;;;;13.92;76.68;99018.94;5053413;28;20130;-63
2021/10/20 08:55:11;;;;;;;6.78;5.80;;;;;;;13.93;76.61;99005.03;5037648;28;20443;-63
2021/10/20 08:58:04;;;;;;;7.97;6.28;;;;;;;13.93;76.81;99022.38;5037760;28;20048;-63
2021/10/20 09:00:49;;;;;;;11.13;6.55;;;;;;;13.93;76.74;99028.47;5037573;28;20420;-63
2021/10/20 09:03:33;;;;;;;10.10;5.80;;;;;;;13.94;76.83;99013.69;5037952;28;20071;-63
2021/10/20 09:06:28;;;;;;;9.13;5.80;;;;;;;13.94;76.85;98985.88;5037952;28;20091;-63
2021/10/20 09:09:18;;;;;;;11.52;6.90;;;;;;;13.97;76.71;99003.22;5037863;28;20126;-63
2021/10/20 09:12:10;;;;;;;8.25;7.00;;;;;;;13.98;76.72;99011.00;5038080;28;20052;-63
2021/10/20 09:15:20;;;;;;;10.35;5.95;;;;;;;13.99;76.71;98997.09;5038301;28;20167;-63
2021/10/20 09:18:19;;;;;;;11.18;6.20;;;;;;;13.98;76.88;99000.59;5052843;28;20059;-63
2021/10/20 09:21:10;;;;;;;8.82;5.93;;;;;;;14.02;76.63;98996.19;5037180;28;20056;-63
2021/10/20 09:24:14;;;;;;;8.27;6.85;;;;;;;14.05;76.68;99003.97;5037992;28;20125;-63
2021/10/20 09:27:03;;;;;;;10.15;6.25;;;;;;;14.09;76.93;99007.41;5052347;28;20052;-63
2021/10/20 09:30:11;;;;;;;9.80;6.60;;;;;;;14.12;76.61;99030.78;5038036;28;20511;-63
2021/10/20 09:32:58;;;;;;;10.93;6.82;;;;;;;14.12;76.76;99017.75;5037809;28;20083;-63
2021/10/20 09:35:48;;;;;;;12.20;6.38;;;;;;;14.11;76.55;99037.75;5037869;28;20048;-63
2021/10/20 09:38:49;;;;;;;10.10;6.60;;;;;;;14.13;76.83;99014.28;5041336;28;20055;-63
2021/10/20 09:41:39;;;;;;;9.35;6.43;;;;;;;14.13;76.86;99025.56;5055829;28;20558;-63
2021/10/20 09:44:23;;;;;;;7.55;5.82;;;;;;;14.15;76.94;99012.50;5041266;28;20048;-63
2021/10/20 09:47:19;;;;;;;8.55;6.53;;;;;;;14.14;76.80;99035.13;5055635;28;20114;-63
2021/10/20 09:50:17;;;;;;;9.68;6.00;;;;;;;14.15;76.72;99022.94;5041175;28;20405;-63
2021/10/20 09:53:07;;;;;;;11.73;6.72;;;;;;;14.17;76.69;99023.78;5040710;28;20592;-63
2021/10/20 09:55:59;;;;;;;7.78;5.85;;;;;;;14.17;76.68;99031.59;5041064;28;20063;-63
2021/10/20 09:58:46;;;;;;;7.30;5.50;;;;;;;14.18;76.86;99040.25;5040276;28;20056;-63
2021/10/20 10:01:30;;;;;;;9.23;5.68;;;;;;;14.19;76.91;99040.25;5055234;28;20079;-63
2021/10/20 10:04:17;;;;;;;;;;;;;;;14.19;76.74;99034.16;5056223;28;20471;-63
2021/10/20 10:07:07;;;;;;;8.88;5.85;;;;;;;14.17;76.78;99031.59;5040446;28;19924;-63
2021/10/20 10:09:50;;;;;;;9.10;5.93;;;;;;;14.18;77.11;99038.53;5040911;28;20048;-63
2021/10/20 10:12:35;;;;;;;10.35;6.45;;;;;;;14.20;76.89;99039.38;5055398;28;20188;-63
2021/10/20 10:15:26;;;;;;;;;;;;;;;14.19;76.71;99034.16;5055782;28;20542;-63
2021/10/20 10:18:17;;;;;;;9.05;6.25;;;;;;;14.18;76.73;99043.75;5040608;28;19970;-63
2021/10/20 10:21:03;;;;;;;8.80;6.10;;;;;;;14.21;76.93;99048.03;5055296;28;20087;-63
2021/10/20 10:23:57;;;;;;;13.82;10.48;;;;;;;14.20;76.75;99028.06;5055651;28;20048;-63
2021/10/20 10:27:09;;;;;;;10.25;8.25;;;;;;;14.21;76.85;99029.78;5040226;28;20063;-63
2021/10/20 10:30:03;;;;;;;12.35;8.80;;;;;;;14.20;77.05;99030.66;5040462;28;20051;-63
2021/10/20 10:33:00;;;;;;;16.88;10.00;;;;;;;14.20;77.08;99043.69;5054960;28;20462;-63
2021/10/20 10:35:47;;;;;;;16.65;11.68;;;;;;;14.21;77.12;99041.09;5055541;28;20075;-63
2021/10/20 10:38:47;;;;;;;17.73;13.32;;;;;;;14.20;76.97;99048.91;5039945;28;20076;-63
2021/10/20 10:41:40;;;;;;;25.27;16.83;;;;;;;14.23;77.20;99054.09;5055013;28;20044;-63
2021/10/20 10:44:30;;;;;;;15.45;12.75;;;;;;;14.23;77.06;99044.53;5039789;28;20103;-63
2021/10/20 10:47:24;;;;;;;12.63;10.57;;;;;;;14.23;77.09;99051.47;5054542;28;20099;-63
2021/10/20 10:50:11;;;;;;;12.38;10.20;;;;;;;14.23;77.44;99048.88;5040164;28;20115;-63
2021/10/20 10:52:55;;;;;;;11.77;8.65;;;;;;;14.24;77.17;99054.09;5039559;28;20543;-63
2021/10/20 10:56:07;;;;;;;11.65;8.88;;;;;;;14.24;77.15;99056.69;5054541;28;20051;-63
2021/10/20 10:59:04;;;;;;;10.48;8.10;;;;;;;14.23;77.10;99057.56;5054516;28;20048;-63
2021/10/20 11:01:57;;;;;;;11.52;8.05;;;;;;;14.26;77.05;99051.44;5039573;28;20056;-63
2021/10/20 11:04:45;;;;;;;11.57;8.90;;;;;;;14.24;77.23;99043.66;5039793;28;20105;-63
2021/10/20 11:07:30;;;;;;;11.55;9.77;;;;;;;14.26;77.09;99038.41;5039776;28;20056;-63
2021/10/20 11:10:16;;;;;;;13.05;10.45;;;;;;;14.27;77.35;99043.59;5039652;28;20079;-63
2021/10/20 11:13:01;;;;;;;39.13;28.15;;;;;;;14.27;77.08;99040.97;5039016;28;20102;-63
2021/10/20 11:15:52;;;;;;;67.43;47.70;;;;;;;14.28;77.16;99034.88;5054222;28;20067;-63
2021/10/20 11:18:54;;;;;;;59.50;44.97;;;;;;;14.28;77.39;99026.22;5039670;28;20090;-63
2021/10/20 11:21:40;;;;;;;42.80;32.72;;;;;;;14.28;76.96;99021.84;5054387;28;20399;-63
2021/10/20 11:24:30;;;;;;;41.15;27.70;;;;;;;14.30;77.27;99017.47;5038955;28;20079;-63
2021/10/20 11:27:21;;;;;;;28.02;20.63;;;;;;;14.30;77.22;99027.06;5053932;28;20159;-63
2021/10/20 11:30:07;;;;;;;29.23;21.73;;;;;;;14.30;77.25;99016.63;5039423;28;20048;-63
2021/10/20 11:32:51;;;;;;;22.40;17.10;;;;;;;14.30;77.19;99012.28;5038796;28;20087;-64
2021/10/20 11:35:37;;;;;;;20.90;15.70;;;;;;;14.30;77.43;99014.88;5039128;28;20101;-63
2021/10/20 11:38:20;;;;;;;24.17;15.48;;;;;;;14.30;77.35;98998.41;5038903;28;20044;-63
2021/10/20 11:41:16;;;;;;;21.00;15.20;;;;;;;14.29;77.20;98997.53;5053899;28;20071;-63
2021/10/20 11:44:00;;;;;;;19.48;14.27;;;;;;;14.29;77.34;99000.13;5053623;28;20476;-63
2021/10/20 11:46:47;;;;;;;24.30;18.42;;;;;;;14.29;77.35;99000.13;5053879;28;20043;-63
2021/10/20 11:49:42;;;;;;;25.20;19.67;;;;;;;14.29;77.25;98991.47;5053595;28;20051;-63
2021/10/20 11:52:30;;;;;;;19.75;15.82;;;;;;;14.28;77.52;98992.34;5053824;28;20048;-63
2021/10/20 11:55:17;;;;;;;19.52;14.27;;;;;;;14.28;77.41;98987.97;5053408;28;20052;-63
2021/10/20 11:58:04;;;;;;;15.70;13.10;;;;;;;14.28;77.42;98995.78;5054030;28;20103;-63
2021/10/20 12:01:07;;;;;;;18.42;10.90;;;;;;;14.29;77.58;98978.44;5053143;28;20553;-63
2021/10/20 12:03:51;;;;;;;15.02;11.18;;;;;;;14.27;77.33;98981.03;5038824;28;20047;-63
2021/10/20 12:06:44;;;;;;;11.35;9.07;;;;;;;14.28;77.56;98972.34;5053740;28;20052;-63
2021/10/20 12:09:38;;;;;;;13.13;9.90;;;;;;;14.29;77.67;98968.84;5053863;28;20090;-63
2021/10/20 12:12:27;;;;;;;12.25;9.55;;;;;;;14.28;77.53;98964.53;5053267;28;20162;-63
2021/10/20 12:15:22;;;;;;;18.75;12.82;;;;;;;14.30;77.63;98962.75;5038309;28;20048;-63
2021/10/20 12:18:13;;;;;;;;;;;;;;;14.30;77.39;98962.75;5053706;28;20123;-63
2021/10/20 12:21:07;;;;;;;38.45;25.67;;;;;;;14.29;77.59;98954.97;5038506;28;19990;-63
2021/10/20 12:24:03;;;;;;;35.13;26.35;;;;;;;14.29;77.74;98942.78;5038081;28;20107;-63
2021/10/20 12:26:51;;;;;;;36.40;28.10;;;;;;;14.31;77.58;98934.97;5038725;28;20102;-63
2021/10/20 12:29:43;;;;;;;64.07;42.22;;;;;;;14.34;77.94;98934.88;5053359;28;20400;-63
2021/10/20 12:32:36;;;;;;;40.58;28.35;;;;;;;14.33;77.48;98941.00;5038246;28;20138;-63
2021/10/20 12:35:29;;;;;;;38.42;28.95;;;;;;;14.33;77.69;98933.16;5053044;28;20070;-63
2021/10/20 12:38:19;;;;;;;32.85;23.67;;;;;;;14.35;77.75;98933.16;5053335;28;20535;-63
2021/10/20 12:41:29;;;;;;;29.83;22.00;;;;;;;14.34;77.81;98921.00;5053475;28;20083;-63
2021/10/20 12:44:23;;;;;;;22.80;18.00;;;;;;;14.35;77.67;98909.69;5052838;28;20078;-63
2021/10/20 12:47:17;;;;;;;22.45;15.98;;;;;;;14.36;77.72;98924.47;5038274;28;20106;-63
2021/10/20 12:50:07;;;;;;;19.23;14.40;;;;;;;14.36;77.69;98907.06;5038312;28;20102;-63
2021/10/20 12:52:52;;;;;;;20.40;14.70;;;;;;;14.37;77.67;98928.78;5053006;28;20052;-63
2021/10/20 12:55:45;;;;;;;;;;;;;;;14.37;77.54;98905.31;5053599;28;20126;-63
2021/10/20 12:58:34;;;;;;;17.80;11.63;;;;;;;14.35;77.98;98918.38;5037098;28;19957;-63
2021/10/20 13:01:27;;;;;;;14.15;10.82;;;;;;;14.35;78.08;98912.31;5037991;28;20547;-63
2021/10/20 13:04:23;;;;;;;13.52;11.05;;;;;;;14.35;78.06;98899.28;5053089;28;20094;-63
2021/10/20 13:07:18;;;;;;;11.52;10.13;;;;;;;14.36;77.99;98901.84;5053390;28;20075;-63
2021/10/20 13:10:17;;;;;;;15.05;9.98;;;;;;;14.36;77.84;98901.00;5038351;28;20052;-63
2021/10/20 13:13:10;;;;;;;14.98;9.65;;;;;;;14.37;78.09;98895.75;5041630;28;20543;-63
2021/10/20 13:15:59;;;;;;;11.10;8.10;;;;;;;14.38;77.87;98889.66;5042162;28;20083;-63
2021/10/20 13:18:43;;;;;;;12.77;8.80;;;;;;;14.38;77.95;98879.22;5041717;28;20126;-62
2021/10/20 13:21:27;;;;;;;10.60;8.93;;;;;;;14.39;77.99;98869.69;5041136;28;20051;-62